Terminal Aerodrome Forecast
Issued by NWS Pendleton, OR

Home | Current Version | Previous Version | Text Only | Print | Product List | Glossary On
Versions: 1 2 3 4 5 6 7 8 9 10 11 12 13 14 15 16
438
FTUS46 KPDT 300126 AAA
TAFPDT
TAF AMD
KPDT 300126Z 3001/3024 27011KT P6SM -SHRA BKN045
     FM300800 26009KT P6SM BKN050
     FM301900 34008KT P6SM SCT060=

USA.gov is the U.S. government's official web portal to all federal, state and local government web resources and services.